sensor_id;sensor_type;location;lat;lon;timestamp;temperature;humidity
39525;DHT22;25203;50.754;6.978;2023-04-15T00:00:38;2.90;99.90
39525;DHT22;25203;50.754;6.978;2023-04-15T00:02:39;2.80;99.90
39525;DHT22;25203;50.754;6.978;2023-04-15T00:04:40;2.80;99.90
39525;DHT22;25203;50.754;6.978;2023-04-15T00:06:40;2.80;99.90
39525;DHT22;25203;50.754;6.978;2023-04-15T00:08:41;2.80;99.90
39525;DHT22;25203;50.754;6.978;2023-04-15T00:10:41;2.80;99.90
39525;DHT22;25203;50.754;6.978;2023-04-15T00:12:45;2.80;99.90
39525;DHT22;25203;50.754;6.978;2023-04-15T00:14:46;2.80;99.90
39525;DHT22;25203;50.754;6.978;2023-04-15T00:16:46;2.80;99.90
39525;DHT22;25203;50.754;6.978;2023-04-15T00:18:49;2.80;99.90
39525;DHT22;25203;50.754;6.978;2023-04-15T00:20:50;2.80;99.90
39525;DHT22;25203;50.754;6.978;2023-04-15T00:22:51;2.70;99.90
39525;DHT22;25203;50.754;6.978;2023-04-15T00:24:53;2.60;99.90
39525;DHT22;25203;50.754;6.978;2023-04-15T00:26:53;2.60;99.90
39525;DHT22;25203;50.754;6.978;2023-04-15T00:28:54;2.60;99.90
39525;DHT22;25203;50.754;6.978;2023-04-15T00:30:55;2.60;99.90
39525;DHT22;25203;50.754;6.978;2023-04-15T00:32:55;2.50;99.90
39525;DHT22;25203;50.754;6.978;2023-04-15T00:34:56;2.50;99.90
39525;DHT22;25203;50.754;6.978;2023-04-15T00:36:57;2.40;99.90
39525;DHT22;25203;50.754;6.978;2023-04-15T00:38:57;2.40;99.90
39525;DHT22;25203;50.754;6.978;2023-04-15T00:40:58;2.40;99.90
39525;DHT22;25203;50.754;6.978;2023-04-15T00:42:59;2.40;99.90
39525;DHT22;25203;50.754;6.978;2023-04-15T00:44:59;2.40;99.90
39525;DHT22;25203;50.754;6.978;2023-04-15T00:47:00;2.50;99.90
39525;DHT22;25203;50.754;6.978;2023-04-15T00:49:05;2.50;99.90
39525;DHT22;25203;50.754;6.978;2023-04-15T00:51:06;2.50;99.90
39525;DHT22;25203;50.754;6.978;2023-04-15T00:53:06;2.50;99.90
39525;DHT22;25203;50.754;6.978;2023-04-15T00:55:08;2.40;99.90
39525;DHT22;25203;50.754;6.978;2023-04-15T00:57:08;2.40;99.90
39525;DHT22;25203;50.754;6.978;2023-04-15T00:59:09;2.40;99.90
39525;DHT22;25203;50.754;6.978;2023-04-15T01:01:10;2.20;99.90
39525;DHT22;25203;50.754;6.978;2023-04-15T01:03:10;2.20;99.90
39525;DHT22;25203;50.754;6.978;2023-04-15T01:05:11;2.20;99.90
39525;DHT22;25203;50.754;6.978;2023-04-15T01:07:12;2.00;99.90
39525;DHT22;25203;50.754;6.978;2023-04-15T01:09:12;1.90;99.90
39525;DHT22;25203;50.754;6.978;2023-04-15T01:11:13;1.90;99.90
39525;DHT22;25203;50.754;6.978;2023-04-15T01:13:14;2.00;99.90
39525;DHT22;25203;50.754;6.978;2023-04-15T01:15:15;2.10;99.90
39525;DHT22;25203;50.754;6.978;2023-04-15T01:17:16;2.10;99.90
39525;DHT22;25203;50.754;6.978;2023-04-15T01:19:17;2.00;99.90
39525;DHT22;25203;50.754;6.978;2023-04-15T01:21:18;2.00;99.90
39525;DHT22;25203;50.754;6.978;2023-04-15T01:23:22;1.90;99.90
39525;DHT22;25203;50.754;6.978;2023-04-15T01:25:33;2.00;99.90
39525;DHT22;25203;50.754;6.978;2023-04-15T01:27:35;2.00;99.90
39525;DHT22;25203;50.754;6.978;2023-04-15T01:29:37;2.10;99.90
39525;DHT22;25203;50.754;6.978;2023-04-15T01:31:39;2.10;99.90
39525;DHT22;25203;50.754;6.978;2023-04-15T01:33:40;2.20;99.90
39525;DHT22;25203;50.754;6.978;2023-04-15T01:35:41;2.10;99.90
39525;DHT22;25203;50.754;6.978;2023-04-15T01:37:44;2.00;99.90
39525;DHT22;25203;50.754;6.978;2023-04-15T01:39:44;2.00;99.90
39525;DHT22;25203;50.754;6.978;2023-04-15T01:41:45;2.00;99.90
39525;DHT22;25203;50.754;6.978;2023-04-15T01:43:46;1.90;99.90
39525;DHT22;25203;50.754;6.978;2023-04-15T01:45:47;1.90;99.90
39525;DHT22;25203;50.754;6.978;2023-04-15T01:47:47;1.90;99.90
39525;DHT22;25203;50.754;6.978;2023-04-15T01:49:48;1.90;99.90
39525;DHT22;25203;50.754;6.978;2023-04-15T01:51:49;1.80;99.90
39525;DHT22;25203;50.754;6.978;2023-04-15T01:53:49;1.80;99.90
39525;DHT22;25203;50.754;6.978;2023-04-15T01:55:51;1.70;99.90
39525;DHT22;25203;50.754;6.978;2023-04-15T01:57:52;1.70;99.90
39525;DHT22;25203;50.754;6.978;2023-04-15T01:59:52;1.60;99.90
39525;DHT22;25203;50.754;6.978;2023-04-15T02:01:53;1.70;99.90
39525;DHT22;25203;50.754;6.978;2023-04-15T02:03:54;1.70;99.90
39525;DHT22;25203;50.754;6.978;2023-04-15T02:05:55;1.70;99.90
39525;DHT22;25203;50.754;6.978;2023-04-15T02:07:56;1.70;99.90
39525;DHT22;25203;50.754;6.978;2023-04-15T02:09:57;1.70;99.90
39525;DHT22;25203;50.754;6.978;2023-04-15T02:11:57;1.60;99.90
39525;DHT22;25203;50.754;6.978;2023-04-15T02:13:58;1.60;99.90
39525;DHT22;25203;50.754;6.978;2023-04-15T02:15:59;1.60;99.90
39525;DHT22;25203;50.754;6.978;2023-04-15T02:18:00;1.60;99.90
39525;DHT22;25203;50.754;6.978;2023-04-15T02:20:01;1.60;99.90
39525;DHT22;25203;50.754;6.978;2023-04-15T02:22:03;1.60;99.90
39525;DHT22;25203;50.754;6.978;2023-04-15T02:24:04;1.70;99.90
39525;DHT22;25203;50.754;6.978;2023-04-15T02:26:04;1.60;99.90
39525;DHT22;25203;50.754;6.978;2023-04-15T02:28:06;1.60;99.90
39525;DHT22;25203;50.754;6.978;2023-04-15T02:30:07;1.60;99.90
39525;DHT22;25203;50.754;6.978;2023-04-15T02:32:07;1.50;99.90
39525;DHT22;25203;50.754;6.978;2023-04-15T02:34:08;1.40;99.90
39525;DHT22;25203;50.754;6.978;2023-04-15T02:36:08;1.40;99.90
39525;DHT22;25203;50.754;6.978;2023-04-15T02:38:11;1.30;99.90
39525;DHT22;25203;50.754;6.978;2023-04-15T02:40:12;1.30;99.90
39525;DHT22;25203;50.754;6.978;2023-04-15T02:42:12;1.20;99.90
39525;DHT22;25203;50.754;6.978;2023-04-15T02:44:13;1.20;99.90
39525;DHT22;25203;50.754;6.978;2023-04-15T02:46:13;1.20;99.90
39525;DHT22;25203;50.754;6.978;2023-04-15T02:48:14;1.20;99.90
39525;DHT22;25203;50.754;6.978;2023-04-15T02:50:17;1.20;99.90
39525;DHT22;25203;50.754;6.978;2023-04-15T02:52:17;1.20;99.90
39525;DHT22;25203;50.754;6.978;2023-04-15T02:54:19;1.20;99.90
39525;DHT22;25203;50.754;6.978;2023-04-15T02:56:20;1.20;99.90
39525;DHT22;25203;50.754;6.978;2023-04-15T02:58:22;1.30;99.90
39525;DHT22;25203;50.754;6.978;2023-04-15T03:00:23;1.30;99.90
39525;DHT22;25203;50.754;6.978;2023-04-15T03:02:24;1.30;99.90
39525;DHT22;25203;50.754;6.978;2023-04-15T03:04:25;1.20;99.90
39525;DHT22;25203;50.754;6.978;2023-04-15T03:06:26;1.20;99.90
39525;DHT22;25203;50.754;6.978;2023-04-15T03:08:27;1.10;99.90
39525;DHT22;25203;50.754;6.978;2023-04-15T03:10:27;1.10;99.90
39525;DHT22;25203;50.754;6.978;2023-04-15T03:12:28;1.00;99.90
39525;DHT22;25203;50.754;6.978;2023-04-15T03:14:29;1.00;99.90
39525;DHT22;25203;50.754;6.978;2023-04-15T03:16:30;1.00;99.90
39525;DHT22;25203;50.754;6.978;2023-04-15T03:18:30;1.00;99.90
39525;DHT22;25203;50.754;6.978;2023-04-15T03:20:31;0.90;99.90
39525;DHT22;25203;50.754;6.978;2023-04-15T03:22:32;1.00;99.90
39525;DHT22;25203;50.754;6.978;2023-04-15T03:24:32;0.90;99.90
39525;DHT22;25203;50.754;6.978;2023-04-15T03:26:33;0.90;99.90
39525;DHT22;25203;50.754;6.978;2023-04-15T03:28:34;0.90;99.90
39525;DHT22;25203;50.754;6.978;2023-04-15T03:30:34;0.90;99.90
39525;DHT22;25203;50.754;6.978;2023-04-15T03:32:35;0.90;99.90
39525;DHT22;25203;50.754;6.978;2023-04-15T03:34:35;0.90;99.90
39525;DHT22;25203;50.754;6.978;2023-04-15T03:36:36;1.00;99.90
39525;DHT22;25203;50.754;6.978;2023-04-15T03:38:37;1.10;99.90
39525;DHT22;25203;50.754;6.978;2023-04-15T03:40:40;1.10;99.90
39525;DHT22;25203;50.754;6.978;2023-04-15T03:42:41;1.20;99.90
39525;DHT22;25203;50.754;6.978;2023-04-15T03:44:42;1.20;99.90
39525;DHT22;25203;50.754;6.978;2023-04-15T03:46:42;1.20;99.90
39525;DHT22;25203;50.754;6.978;2023-04-15T03:48:43;1.20;99.90
39525;DHT22;25203;50.754;6.978;2023-04-15T03:50:44;1.30;99.90
39525;DHT22;25203;50.754;6.978;2023-04-15T03:52:45;1.30;99.90
39525;DHT22;25203;50.754;6.978;2023-04-15T03:54:45;1.20;99.90
39525;DHT22;25203;50.754;6.978;2023-04-15T03:56:47;1.10;99.90
39525;DHT22;25203;50.754;6.978;2023-04-15T03:58:47;1.00;99.90
39525;DHT22;25203;50.754;6.978;2023-04-15T04:00:48;1.00;99.90
39525;DHT22;25203;50.754;6.978;2023-04-15T04:02:48;1.10;99.90
39525;DHT22;25203;50.754;6.978;2023-04-15T04:04:49;1.10;99.90
39525;DHT22;25203;50.754;6.978;2023-04-15T04:06:49;1.10;99.90
39525;DHT22;25203;50.754;6.978;2023-04-15T04:08:50;1.10;99.90
39525;DHT22;25203;50.754;6.978;2023-04-15T04:10:51;1.30;99.90
39525;DHT22;25203;50.754;6.978;2023-04-15T04:12:51;1.40;99.90
39525;DHT22;25203;50.754;6.978;2023-04-15T04:14:52;1.40;99.90
39525;DHT22;25203;50.754;6.978;2023-04-15T04:16:52;1.30;99.90
39525;DHT22;25203;50.754;6.978;2023-04-15T04:18:53;1.20;99.90
39525;DHT22;25203;50.754;6.978;2023-04-15T04:20:54;1.20;99.90
39525;DHT22;25203;50.754;6.978;2023-04-15T04:22:54;1.20;99.90
39525;DHT22;25203;50.754;6.978;2023-04-15T04:24:55;1.20;99.90
39525;DHT22;25203;50.754;6.978;2023-04-15T04:26:56;1.20;99.90
39525;DHT22;25203;50.754;6.978;2023-04-15T04:28:56;1.20;99.90
39525;DHT22;25203;50.754;6.978;2023-04-15T04:30:57;1.20;99.90
39525;DHT22;25203;50.754;6.978;2023-04-15T04:32:58;1.20;99.90
39525;DHT22;25203;50.754;6.978;2023-04-15T04:34:58;1.20;99.90
39525;DHT22;25203;50.754;6.978;2023-04-15T04:36:59;1.20;99.90
39525;DHT22;25203;50.754;6.978;2023-04-15T04:39:00;1.20;99.90
39525;DHT22;25203;50.754;6.978;2023-04-15T04:41:01;1.20;99.90
39525;DHT22;25203;50.754;6.978;2023-04-15T04:43:01;1.20;99.90
39525;DHT22;25203;50.754;6.978;2023-04-15T04:45:02;1.20;99.90
39525;DHT22;25203;50.754;6.978;2023-04-15T04:47:04;1.20;99.90
39525;DHT22;25203;50.754;6.978;2023-04-15T04:49:06;1.30;99.90
39525;DHT22;25203;50.754;6.978;2023-04-15T04:51:07;1.30;99.90
39525;DHT22;25203;50.754;6.978;2023-04-15T04:53:08;1.30;99.90
39525;DHT22;25203;50.754;6.978;2023-04-15T04:55:09;1.30;99.90
39525;DHT22;25203;50.754;6.978;2023-04-15T04:57:10;1.30;99.90
39525;DHT22;25203;50.754;6.978;2023-04-15T04:59:12;1.30;99.90
39525;DHT22;25203;50.754;6.978;2023-04-15T05:01:13;1.30;99.90
39525;DHT22;25203;50.754;6.978;2023-04-15T05:03:14;1.30;99.90
39525;DHT22;25203;50.754;6.978;2023-04-15T05:05:14;1.20;99.90
39525;DHT22;25203;50.754;6.978;2023-04-15T05:07:15;1.30;99.90
39525;DHT22;25203;50.754;6.978;2023-04-15T05:09:16;1.30;99.90
39525;DHT22;25203;50.754;6.978;2023-04-15T05:11:17;1.30;99.90
39525;DHT22;25203;50.754;6.978;2023-04-15T05:13:17;1.30;99.90
39525;DHT22;25203;50.754;6.978;2023-04-15T05:15:18;1.40;99.90
39525;DHT22;25203;50.754;6.978;2023-04-15T05:17:19;1.40;99.90
39525;DHT22;25203;50.754;6.978;2023-04-15T05:19:20;1.50;99.90
39525;DHT22;25203;50.754;6.978;2023-04-15T05:21:20;1.50;99.90
39525;DHT22;25203;50.754;6.978;2023-04-15T05:23:21;1.50;99.90
39525;DHT22;25203;50.754;6.978;2023-04-15T05:25:22;1.50;99.90
39525;DHT22;25203;50.754;6.978;2023-04-15T05:27:22;1.60;99.90
39525;DHT22;25203;50.754;6.978;2023-04-15T05:29:23;1.50;99.90
39525;DHT22;25203;50.754;6.978;2023-04-15T05:31:24;1.60;99.90
39525;DHT22;25203;50.754;6.978;2023-04-15T05:33:25;1.60;99.90
39525;DHT22;25203;50.754;6.978;2023-04-15T05:35:26;1.60;99.90
39525;DHT22;25203;50.754;6.978;2023-04-15T05:37:27;1.60;99.90
39525;DHT22;25203;50.754;6.978;2023-04-15T05:39:28;1.80;99.90
39525;DHT22;25203;50.754;6.978;2023-04-15T05:41:28;1.80;99.90
39525;DHT22;25203;50.754;6.978;2023-04-15T05:43:29;1.90;99.90
39525;DHT22;25203;50.754;6.978;2023-04-15T05:45:30;2.00;99.90
39525;DHT22;25203;50.754;6.978;2023-04-15T05:47:31;2.10;99.90
39525;DHT22;25203;50.754;6.978;2023-04-15T05:49:31;2.20;99.90
39525;DHT22;25203;50.754;6.978;2023-04-15T05:51:32;2.40;99.90
39525;DHT22;25203;50.754;6.978;2023-04-15T05:53:32;2.60;99.90
39525;DHT22;25203;50.754;6.978;2023-04-15T05:55:33;2.80;99.90
39525;DHT22;25203;50.754;6.978;2023-04-15T05:57:33;2.90;99.90
39525;DHT22;25203;50.754;6.978;2023-04-15T05:59:34;3.00;99.90
39525;DHT22;25203;50.754;6.978;2023-04-15T06:01:35;3.20;99.90
39525;DHT22;25203;50.754;6.978;2023-04-15T06:03:36;3.40;99.90
39525;DHT22;25203;50.754;6.978;2023-04-15T06:05:38;3.70;99.90
39525;DHT22;25203;50.754;6.978;2023-04-15T06:07:38;3.90;99.90
39525;DHT22;25203;50.754;6.978;2023-04-15T06:09:39;4.20;99.90
39525;DHT22;25203;50.754;6.978;2023-04-15T06:11:39;4.40;99.90
39525;DHT22;25203;50.754;6.978;2023-04-15T06:13:40;4.50;99.90
39525;DHT22;25203;50.754;6.978;2023-04-15T06:15:41;4.60;99.90
39525;DHT22;25203;50.754;6.978;2023-04-15T06:17:41;4.60;99.90
39525;DHT22;25203;50.754;6.978;2023-04-15T06:19:42;4.80;99.90
39525;DHT22;25203;50.754;6.978;2023-04-15T06:21:43;4.90;99.90
39525;DHT22;25203;50.754;6.978;2023-04-15T06:23:43;5.10;99.90
39525;DHT22;25203;50.754;6.978;2023-04-15T06:25:44;5.30;99.90
39525;DHT22;25203;50.754;6.978;2023-04-15T06:27:45;5.50;99.90
39525;DHT22;25203;50.754;6.978;2023-04-15T06:29:46;5.90;99.90
39525;DHT22;25203;50.754;6.978;2023-04-15T06:31:47;6.40;99.90
39525;DHT22;25203;50.754;6.978;2023-04-15T06:33:48;6.90;99.90
39525;DHT22;25203;50.754;6.978;2023-04-15T06:35:49;7.60;99.90
39525;DHT22;25203;50.754;6.978;2023-04-15T06:37:50;8.30;99.90
39525;DHT22;25203;50.754;6.978;2023-04-15T06:39:51;9.00;99.90
39525;DHT22;25203;50.754;6.978;2023-04-15T06:41:51;9.70;99.90
39525;DHT22;25203;50.754;6.978;2023-04-15T06:43:52;10.30;99.90
39525;DHT22;25203;50.754;6.978;2023-04-15T06:45:53;10.70;99.90
39525;DHT22;25203;50.754;6.978;2023-04-15T06:47:53;11.10;99.90
39525;DHT22;25203;50.754;6.978;2023-04-15T06:49:54;11.40;99.90
39525;DHT22;25203;50.754;6.978;2023-04-15T06:51:54;11.50;99.30
39525;DHT22;25203;50.754;6.978;2023-04-15T06:53:55;11.40;99.00
39525;DHT22;25203;50.754;6.978;2023-04-15T06:55:56;11.30;98.10
39525;DHT22;25203;50.754;6.978;2023-04-15T06:57:57;10.90;98.20
39525;DHT22;25203;50.754;6.978;2023-04-15T06:59:57;10.60;98.90
39525;DHT22;25203;50.754;6.978;2023-04-15T07:01:58;10.20;99.90
39525;DHT22;25203;50.754;6.978;2023-04-15T07:03:59;9.70;99.90
39525;DHT22;25203;50.754;6.978;2023-04-15T07:05:59;9.30;99.90
39525;DHT22;25203;50.754;6.978;2023-04-15T07:08:01;9.10;99.90
39525;DHT22;25203;50.754;6.978;2023-04-15T07:10:01;8.90;99.90
39525;DHT22;25203;50.754;6.978;2023-04-15T07:12:02;8.90;99.90
39525;DHT22;25203;50.754;6.978;2023-04-15T07:14:02;9.10;99.90
39525;DHT22;25203;50.754;6.978;2023-04-15T07:16:03;9.40;99.90
39525;DHT22;25203;50.754;6.978;2023-04-15T07:18:04;9.60;99.90
39525;DHT22;25203;50.754;6.978;2023-04-15T07:20:05;9.80;99.90
39525;DHT22;25203;50.754;6.978;2023-04-15T07:22:06;10.10;99.90
39525;DHT22;25203;50.754;6.978;2023-04-15T07:24:07;10.40;99.90
39525;DHT22;25203;50.754;6.978;2023-04-15T07:26:08;10.70;99.90
39525;DHT22;25203;50.754;6.978;2023-04-15T07:28:09;11.00;99.90
39525;DHT22;25203;50.754;6.978;2023-04-15T07:30:10;11.20;99.90
39525;DHT22;25203;50.754;6.978;2023-04-15T07:32:11;11.50;99.90
39525;DHT22;25203;50.754;6.978;2023-04-15T07:34:12;11.70;98.90
39525;DHT22;25203;50.754;6.978;2023-04-15T07:36:13;11.90;98.80
39525;DHT22;25203;50.754;6.978;2023-04-15T07:38:13;11.90;98.70
39525;DHT22;25203;50.754;6.978;2023-04-15T07:40:14;12.10;98.80
39525;DHT22;25203;50.754;6.978;2023-04-15T07:42:15;12.30;98.80
39525;DHT22;25203;50.754;6.978;2023-04-15T07:44:16;12.50;98.70
39525;DHT22;25203;50.754;6.978;2023-04-15T07:46:16;12.70;97.70
39525;DHT22;25203;50.754;6.978;2023-04-15T07:48:17;12.60;96.60
39525;DHT22;25203;50.754;6.978;2023-04-15T07:50:18;12.50;97.80
39525;DHT22;25203;50.754;6.978;2023-04-15T07:52:19;12.60;96.50
39525;DHT22;25203;50.754;6.978;2023-04-15T07:54:19;12.40;97.10
39525;DHT22;25203;50.754;6.978;2023-04-15T07:56:20;12.50;96.30
39525;DHT22;25203;50.754;6.978;2023-04-15T07:58:21;12.60;96.30
39525;DHT22;25203;50.754;6.978;2023-04-15T08:00:22;13.00;96.60
39525;DHT22;25203;50.754;6.978;2023-04-15T08:02:23;13.70;96.10
39525;DHT22;25203;50.754;6.978;2023-04-15T08:04:23;14.10;94.70
39525;DHT22;25203;50.754;6.978;2023-04-15T08:06:24;14.20;94.00
39525;DHT22;25203;50.754;6.978;2023-04-15T08:08:25;14.20;93.40
39525;DHT22;25203;50.754;6.978;2023-04-15T08:10:25;14.20;93.70
39525;DHT22;25203;50.754;6.978;2023-04-15T08:12:26;14.10;93.30
39525;DHT22;25203;50.754;6.978;2023-04-15T08:14:28;14.10;94.10
39525;DHT22;25203;50.754;6.978;2023-04-15T08:16:29;14.70;94.10
39525;DHT22;25203;50.754;6.978;2023-04-15T08:18:29;15.50;91.90
39525;DHT22;25203;50.754;6.978;2023-04-15T08:20:30;16.20;91.60
39525;DHT22;25203;50.754;6.978;2023-04-15T08:22:30;16.90;91.00
39525;DHT22;25203;50.754;6.978;2023-04-15T08:24:31;17.20;88.00
39525;DHT22;25203;50.754;6.978;2023-04-15T08:26:32;17.40;85.40
39525;DHT22;25203;50.754;6.978;2023-04-15T08:28:32;17.70;83.00
39525;DHT22;25203;50.754;6.978;2023-04-15T08:30:33;17.30;83.30
39525;DHT22;25203;50.754;6.978;2023-04-15T08:32:33;16.90;85.30
39525;DHT22;25203;50.754;6.978;2023-04-15T08:34:34;17.10;84.60
39525;DHT22;25203;50.754;6.978;2023-04-15T08:36:35;17.10;84.90
39525;DHT22;25203;50.754;6.978;2023-04-15T08:38:36;16.80;83.60
39525;DHT22;25203;50.754;6.978;2023-04-15T08:40:41;16.80;82.60
39525;DHT22;25203;50.754;6.978;2023-04-15T08:42:44;17.00;82.80
39525;DHT22;25203;50.754;6.978;2023-04-15T08:44:46;17.40;83.60
39525;DHT22;25203;50.754;6.978;2023-04-15T08:46:47;17.60;82.80
39525;DHT22;25203;50.754;6.978;2023-04-15T08:48:49;17.30;83.20
39525;DHT22;25203;50.754;6.978;2023-04-15T08:50:50;17.20;82.60
39525;DHT22;25203;50.754;6.978;2023-04-15T08:52:54;17.10;82.20
39525;DHT22;25203;50.754;6.978;2023-04-15T08:54:57;17.30;83.10
39525;DHT22;25203;50.754;6.978;2023-04-15T08:57:00;17.60;82.40
39525;DHT22;25203;50.754;6.978;2023-04-15T08:59:04;18.10;80.80
39525;DHT22;25203;50.754;6.978;2023-04-15T09:01:06;18.40;79.90
39525;DHT22;25203;50.754;6.978;2023-04-15T09:03:07;18.80;78.40
39525;DHT22;25203;50.754;6.978;2023-04-15T09:05:08;18.90;77.10
39525;DHT22;25203;50.754;6.978;2023-04-15T09:07:09;19.00;76.50
39525;DHT22;25203;50.754;6.978;2023-04-15T09:09:11;18.60;75.60
39525;DHT22;25203;50.754;6.978;2023-04-15T09:11:12;18.20;77.20
39525;DHT22;25203;50.754;6.978;2023-04-15T09:13:13;18.20;77.80
39525;DHT22;25203;50.754;6.978;2023-04-15T09:15:14;18.10;77.70
39525;DHT22;25203;50.754;6.978;2023-04-15T09:17:18;18.20;76.90
39525;DHT22;25203;50.754;6.978;2023-04-15T09:19:22;18.00;77.40
39525;DHT22;25203;50.754;6.978;2023-04-15T09:21:23;18.00;78.90
39525;DHT22;25203;50.754;6.978;2023-04-15T09:23:24;18.20;78.40
39525;DHT22;25203;50.754;6.978;2023-04-15T09:25:27;18.50;77.40
39525;DHT22;25203;50.754;6.978;2023-04-15T09:27:27;18.70;76.30
39525;DHT22;25203;50.754;6.978;2023-04-15T09:29:28;19.20;75.90
39525;DHT22;25203;50.754;6.978;2023-04-15T09:31:29;19.60;72.50
39525;DHT22;25203;50.754;6.978;2023-04-15T09:33:30;20.20;70.10
39525;DHT22;25203;50.754;6.978;2023-04-15T09:35:31;20.80;65.70
39525;DHT22;25203;50.754;6.978;2023-04-15T09:37:35;21.20;65.30
39525;DHT22;25203;50.754;6.978;2023-04-15T09:39:49;21.70;60.80
39525;DHT22;25203;50.754;6.978;2023-04-15T09:42:06;22.50;59.00
39525;DHT22;25203;50.754;6.978;2023-04-15T09:44:06;23.30;57.30
39525;DHT22;25203;50.754;6.978;2023-04-15T09:46:43;23.50;55.00
39525;DHT22;25203;50.754;6.978;2023-04-15T09:48:43;22.90;53.20
39525;DHT22;25203;50.754;6.978;2023-04-15T09:50:44;22.10;54.80
39525;DHT22;25203;50.754;6.978;2023-04-15T09:52:45;21.80;54.20
39525;DHT22;25203;50.754;6.978;2023-04-15T09:54:46;21.20;55.60
39525;DHT22;25203;50.754;6.978;2023-04-15T09:56:47;21.10;56.90
39525;DHT22;25203;50.754;6.978;2023-04-15T09:58:55;20.80;55.80
39525;DHT22;25203;50.754;6.978;2023-04-15T10:00:57;20.70;56.70
39525;DHT22;25203;50.754;6.978;2023-04-15T10:02:58;20.80;56.90
39525;DHT22;25203;50.754;6.978;2023-04-15T10:04:58;20.60;56.60
39525;DHT22;25203;50.754;6.978;2023-04-15T10:07:02;20.30;56.90
39525;DHT22;25203;50.754;6.978;2023-04-15T10:09:05;20.00;58.20
39525;DHT22;25203;50.754;6.978;2023-04-15T10:11:07;19.70;58.60
39525;DHT22;25203;50.754;6.978;2023-04-15T10:13:08;19.60;58.50
39525;DHT22;25203;50.754;6.978;2023-04-15T10:15:14;19.20;59.60
39525;DHT22;25203;50.754;6.978;2023-04-15T10:17:17;19.60;59.80
39525;DHT22;25203;50.754;6.978;2023-04-15T10:19:21;20.50;59.20
39525;DHT22;25203;50.754;6.978;2023-04-15T10:21:27;21.10;57.90
39525;DHT22;25203;50.754;6.978;2023-04-15T10:23:27;21.70;56.50
39525;DHT22;25203;50.754;6.978;2023-04-15T10:25:28;22.50;55.60
39525;DHT22;25203;50.754;6.978;2023-04-15T10:27:30;22.80;55.10
39525;DHT22;25203;50.754;6.978;2023-04-15T10:29:31;23.10;54.90
39525;DHT22;25203;50.754;6.978;2023-04-15T10:31:32;23.00;55.40
39525;DHT22;25203;50.754;6.978;2023-04-15T10:33:33;23.50;54.70
39525;DHT22;25203;50.754;6.978;2023-04-15T10:35:35;23.80;54.20
39525;DHT22;25203;50.754;6.978;2023-04-15T10:37:37;23.60;54.10
39525;DHT22;25203;50.754;6.978;2023-04-15T10:39:44;23.00;55.60
39525;DHT22;25203;50.754;6.978;2023-04-15T10:41:44;22.80;55.60
39525;DHT22;25203;50.754;6.978;2023-04-15T10:43:50;22.40;55.70
39525;DHT22;25203;50.754;6.978;2023-04-15T10:45:52;21.90;57.40
39525;DHT22;25203;50.754;6.978;2023-04-15T10:47:57;21.90;56.90
39525;DHT22;25203;50.754;6.978;2023-04-15T10:50:00;22.10;55.90
39525;DHT22;25203;50.754;6.978;2023-04-15T10:52:01;22.20;56.20
39525;DHT22;25203;50.754;6.978;2023-04-15T10:54:14;22.20;56.10
39525;DHT22;25203;50.754;6.978;2023-04-15T10:56:16;22.40;55.90
39525;DHT22;25203;50.754;6.978;2023-04-15T10:58:17;21.70;56.20
39525;DHT22;25203;50.754;6.978;2023-04-15T11:00:18;21.90;57.20
39525;DHT22;25203;50.754;6.978;2023-04-15T11:02:19;21.80;57.40
39525;DHT22;25203;50.754;6.978;2023-04-15T11:07:04;21.60;58.00
39525;DHT22;25203;50.754;6.978;2023-04-15T11:09:05;20.70;58.60
39525;DHT22;25203;50.754;6.978;2023-04-15T11:11:08;20.20;59.20
39525;DHT22;25203;50.754;6.978;2023-04-15T11:15:32;19.00;62.50
39525;DHT22;25203;50.754;6.978;2023-04-15T11:17:33;19.00;61.40
39525;DHT22;25203;50.754;6.978;2023-04-15T11:19:37;18.90;62.10
39525;DHT22;25203;50.754;6.978;2023-04-15T11:21:38;19.00;62.00
39525;DHT22;25203;50.754;6.978;2023-04-15T11:23:40;19.20;62.60
39525;DHT22;25203;50.754;6.978;2023-04-15T11:25:44;19.30;61.50
39525;DHT22;25203;50.754;6.978;2023-04-15T11:27:45;19.00;61.70
39525;DHT22;25203;50.754;6.978;2023-04-15T11:29:45;18.60;62.40
39525;DHT22;25203;50.754;6.978;2023-04-15T11:31:46;18.60;63.50
39525;DHT22;25203;50.754;6.978;2023-04-15T11:33:59;18.50;63.50
39525;DHT22;25203;50.754;6.978;2023-04-15T11:36:02;18.20;64.20
39525;DHT22;25203;50.754;6.978;2023-04-15T11:38:04;17.70;64.90
39525;DHT22;25203;50.754;6.978;2023-04-15T11:40:08;17.10;65.60
39525;DHT22;25203;50.754;6.978;2023-04-15T11:42:17;16.90;67.40
39525;DHT22;25203;50.754;6.978;2023-04-15T11:44:18;16.90;66.70
39525;DHT22;25203;50.754;6.978;2023-04-15T11:46:20;17.00;66.70
39525;DHT22;25203;50.754;6.978;2023-04-15T11:48:24;17.10;66.70
39525;DHT22;25203;50.754;6.978;2023-04-15T11:50:24;17.00;66.90
39525;DHT22;25203;50.754;6.978;2023-04-15T11:52:25;16.90;66.50
39525;DHT22;25203;50.754;6.978;2023-04-15T11:54:25;16.90;66.70
39525;DHT22;25203;50.754;6.978;2023-04-15T11:56:26;16.90;67.30
39525;DHT22;25203;50.754;6.978;2023-04-15T11:58:28;16.80;66.50
39525;DHT22;25203;50.754;6.978;2023-04-15T12:00:29;16.50;66.60
39525;DHT22;25203;50.754;6.978;2023-04-15T12:02:30;16.10;67.70
39525;DHT22;25203;50.754;6.978;2023-04-15T12:04:31;15.80;69.10
39525;DHT22;25203;50.754;6.978;2023-04-15T12:06:32;15.60;70.00
39525;DHT22;25203;50.754;6.978;2023-04-15T12:10:48;15.20;71.00
39525;DHT22;25203;50.754;6.978;2023-04-15T12:12:51;15.10;71.80
39525;DHT22;25203;50.754;6.978;2023-04-15T12:14:52;15.00;71.80
39525;DHT22;25203;50.754;6.978;2023-04-15T12:16:55;14.90;72.10
39525;DHT22;25203;50.754;6.978;2023-04-15T12:18:58;15.00;72.60
39525;DHT22;25203;50.754;6.978;2023-04-15T12:21:13;14.90;73.00
39525;DHT22;25203;50.754;6.978;2023-04-15T12:23:18;15.00;73.60
39525;DHT22;25203;50.754;6.978;2023-04-15T12:25:33;15.10;74.40
39525;DHT22;25203;50.754;6.978;2023-04-15T12:27:33;15.00;73.60
39525;DHT22;25203;50.754;6.978;2023-04-15T12:29:36;14.90;74.80
39525;DHT22;25203;50.754;6.978;2023-04-15T12:31:57;14.60;74.90
39525;DHT22;25203;50.754;6.978;2023-04-15T12:33:58;14.50;76.00
39525;DHT22;25203;50.754;6.978;2023-04-15T12:36:00;14.40;77.40
39525;DHT22;25203;50.754;6.978;2023-04-15T12:38:00;14.40;76.80
39525;DHT22;25203;50.754;6.978;2023-04-15T12:40:01;14.30;77.00
39525;DHT22;25203;50.754;6.978;2023-04-15T12:42:03;14.30;77.90
39525;DHT22;25203;50.754;6.978;2023-04-15T12:44:04;14.20;79.00
39525;DHT22;25203;50.754;6.978;2023-04-15T12:46:05;14.10;80.20
39525;DHT22;25203;50.754;6.978;2023-04-15T12:48:07;14.00;80.50
39525;DHT22;25203;50.754;6.978;2023-04-15T12:50:08;13.90;81.70
39525;DHT22;25203;50.754;6.978;2023-04-15T12:52:09;13.70;81.90
39525;DHT22;25203;50.754;6.978;2023-04-15T12:54:09;13.50;83.00
39525;DHT22;25203;50.754;6.978;2023-04-15T12:56:10;13.30;84.10
39525;DHT22;25203;50.754;6.978;2023-04-15T12:58:11;13.20;85.00
39525;DHT22;25203;50.754;6.978;2023-04-15T13:00:12;13.10;85.40
39525;DHT22;25203;50.754;6.978;2023-04-15T13:02:12;13.00;86.50